Time;durP1;ratioP1;P1;durP2;ratioP2;P2;SDS_P1;SDS_P2;PMS_P1;PMS_P2;Temp;Humidity;BMP_temperature;BMP_pressure;BME280_temperature;BME280_humidity;BME280_pressure;Samples;Min_cycle;Max_cycle;Signal;HPM_P1;HPM_P2
2021/09/13 00:01:26;;;;;;;5.95;4.70;;;14.90;99.90;;;;;;6277214;28;20386;-83
2021/09/13 00:04:26;;;;;;;5.15;4.50;;;15.00;99.90;;;;;;6293438;28;20063;-82
2021/09/13 00:07:27;;;;;;;5.35;4.85;;;14.90;99.90;;;;;;6260244;28;20087;-82
2021/09/13 00:10:28;;;;;;;5.82;5.20;;;;;;;;;;6260246;28;20028;-82
2021/09/13 00:13:28;;;;;;;7.63;5.40;;;14.80;99.90;;;;;;6294486;28;20042;-82
2021/09/13 00:16:29;;;;;;;5.45;4.95;;;14.80;99.90;;;;;;6294734;28;20025;-82
2021/09/13 00:19:29;;;;;;;7.10;5.28;;;14.80;99.90;;;;;;6276333;28;20470;-83
2021/09/13 00:22:30;;;;;;;6.07;5.40;;;14.70;99.90;;;;;;6276737;28;20111;-83
2021/09/13 00:25:31;;;;;;;6.55;5.15;;;14.70;99.90;;;;;;6276618;28;20029;-81
2021/09/13 00:28:32;;;;;;;6.10;5.20;;;;;;;;;;6259595;28;20481;-83
2021/09/13 00:31:33;;;;;;;6.00;5.15;;;;;;;;;;6294806;28;20478;-84
2021/09/13 00:34:35;;;;;;;9.50;5.82;;;14.70;99.90;;;;;;6276362;28;20029;-84
2021/09/13 00:37:36;;;;;;;5.78;5.25;;;14.70;99.90;;;;;;6259759;28;20039;-83
2021/09/13 00:40:37;;;;;;;5.72;5.15;;;;;;;;;;6275878;28;20033;-82
2021/09/13 00:43:37;;;;;;;6.13;5.22;;;14.80;99.90;;;;;;6276103;28;20027;-84
2021/09/13 00:46:38;;;;;;;6.25;5.65;;;14.80;99.90;;;;;;6275677;28;20130;-82
2021/09/13 00:49:38;;;;;;;5.80;5.30;;;14.80;99.90;;;;;;6292707;28;20114;-83
2021/09/13 00:52:39;;;;;;;5.25;4.75;;;14.80;99.90;;;;;;6275643;28;20039;-83
2021/09/13 00:55:39;;;;;;;10.15;5.63;;;14.70;99.90;;;;;;6259130;28;20035;-82
2021/09/13 00:58:40;;;;;;;5.95;5.28;;;14.90;99.90;;;;;;6258900;28;20021;-83
2021/09/13 01:01:41;;;;;;;8.10;5.18;;;14.80;99.90;;;;;;6259054;28;20075;-82
2021/09/13 01:04:41;;;;;;;7.22;5.85;;;14.70;99.90;;;;;;6259140;28;20454;-81
2021/09/13 01:07:42;;;;;;;5.75;5.25;;;14.40;99.90;;;;;;6275329;28;20072;-82
2021/09/13 01:10:43;;;;;;;7.47;5.38;;;14.60;99.90;;;;;;6275502;28;20059;-82
2021/09/13 01:13:43;;;;;;;5.72;5.20;;;14.60;99.90;;;;;;6258853;28;20025;-83
2021/09/13 01:16:44;;;;;;;5.70;5.00;;;15.00;99.90;;;;;;6258967;28;20590;-83
2021/09/13 01:19:45;;;;;;;5.78;5.22;;;14.50;99.90;;;;;;6258608;28;20386;-82
2021/09/13 01:22:46;;;;;;;6.53;5.90;;;14.60;99.90;;;;;;6291905;28;20056;-83
2021/09/13 01:25:46;;;;;;;5.95;5.35;;;14.40;99.90;;;;;;6258608;28;20081;-82
2021/09/13 01:28:47;;;;;;;6.32;5.72;;;;;;;;;;6291949;28;20044;-84
2021/09/13 01:31:48;;;;;;;7.50;6.68;;;;;;;;;;6275139;28;20551;-82
2021/09/13 01:34:49;;;;;;;8.45;5.95;;;;;;;;;;6293134;28;20028;-82
2021/09/13 01:37:50;;;;;;;5.65;5.15;;;14.60;99.90;;;;;;6291872;28;20025;-83
2021/09/13 01:40:50;;;;;;;6.93;6.22;;;14.40;99.90;;;;;;6275390;28;20033;-81
2021/09/13 01:43:51;;;;;;;8.98;6.38;;;14.30;99.90;;;;;;6275046;28;20100;-83
2021/09/13 01:46:52;;;;;;;7.70;5.85;;;14.40;99.90;;;;;;6291137;28;20055;-83
2021/09/13 01:49:52;;;;;;;6.43;5.82;;;14.30;99.90;;;;;;6258324;28;20032;-82
2021/09/13 01:52:53;;;;;;;6.78;6.07;;;14.30;99.90;;;;;;6258227;28;20544;-83
2021/09/13 01:55:53;;;;;;;7.70;5.60;;;14.20;99.90;;;;;;6274789;28;20025;-82
2021/09/13 01:58:54;;;;;;;7.25;5.72;;;14.20;99.90;;;;;;6291469;28;20064;-82
2021/09/13 02:01:54;;;;;;;6.78;6.05;;;14.20;99.90;;;;;;6290934;28;20029;-83
2021/09/13 02:04:55;;;;;;;6.43;5.82;;;14.20;99.90;;;;;;6291327;28;20490;-83
2021/09/13 02:07:56;;;;;;;6.95;6.15;;;14.40;99.90;;;;;;6274019;28;20091;-85
2021/09/13 02:10:57;;;;;;;7.30;5.32;;;14.10;99.90;;;;;;6262965;28;20498;-82
2021/09/13 02:13:58;;;;;;;6.95;6.25;;;14.10;99.90;;;;;;6279879;28;20123;-82
2021/09/13 02:16:59;;;;;;;7.22;6.50;;;14.10;99.90;;;;;;6279705;28;20036;-83
2021/09/13 02:19:59;;;;;;;6.75;5.90;;;14.20;99.90;;;;;;6279107;28;20037;-82
2021/09/13 02:23:00;;;;;;;7.00;6.38;;;14.20;99.90;;;;;;6279584;28;20603;-83
2021/09/13 02:26:00;;;;;;;7.65;6.80;;;14.10;99.90;;;;;;6262358;28;20465;-82
2021/09/13 02:29:01;;;;;;;7.13;6.30;;;14.20;99.90;;;;;;6262784;28;20086;-83
2021/09/13 02:32:02;;;;;;;7.43;6.60;;;14.20;99.90;;;;;;6279398;28;20111;-82
2021/09/13 02:35:05;;;;;;;7.10;6.40;;;14.20;99.90;;;;;;6279004;28;20383;-82
2021/09/13 02:38:06;;;;;;;8.70;6.20;;;14.20;99.90;;;;;;6263035;28;20028;-82
2021/09/13 02:41:06;;;;;;;6.68;6.03;;;14.10;99.90;;;;;;6295430;28;20497;-82
2021/09/13 02:44:07;;;;;;;7.43;6.70;;;14.30;99.90;;;;;;6262077;28;20432;-82
2021/09/13 02:47:08;;;;;;;8.10;6.70;;;14.30;99.90;;;;;;6261276;28;20148;-83
2021/09/13 02:50:09;;;;;;;6.90;6.13;;;14.30;99.90;;;;;;6279115;28;20039;-82
2021/09/13 02:53:09;;;;;;;8.05;7.13;;;14.30;99.90;;;;;;6262008;28;20024;-82
2021/09/13 02:56:10;;;;;;;7.22;6.53;;;14.30;99.90;;;;;;6279330;28;20024;-82
2021/09/13 02:59:10;;;;;;;6.88;6.22;;;14.30;99.90;;;;;;6295097;28;20028;-82
2021/09/13 03:02:11;;;;;;;8.80;6.45;;;14.30;99.90;;;;;;6278676;28;20074;-83
2021/09/13 03:05:12;;;;;;;6.93;6.30;;;14.30;99.90;;;;;;6278715;28;20041;-81
2021/09/13 03:08:12;;;;;;;9.25;6.85;;;14.40;99.90;;;;;;6278218;28;20550;-82
2021/09/13 03:11:13;;;;;;;6.43;5.82;;;14.30;99.90;;;;;;6278341;28;20034;-82
2021/09/13 03:14:13;;;;;;;7.43;6.70;;;14.20;99.90;;;;;;6278393;28;20034;-82
2021/09/13 03:17:14;;;;;;;6.90;6.20;;;14.10;99.90;;;;;;6261451;28;20028;-82
2021/09/13 03:20:14;;;;;;;6.82;6.13;;;13.90;99.90;;;;;;6277207;28;20114;-83
2021/09/13 03:23:15;;;;;;;7.43;6.60;;;13.80;99.90;;;;;;6294881;28;20426;-83
2021/09/13 03:26:16;;;;;;;8.35;7.55;;;13.90;99.90;;;;;;6294336;28;20060;-83
2021/09/13 03:29:16;;;;;;;9.18;6.60;;;13.80;99.90;;;;;;6277712;28;20450;-83
2021/09/13 03:32:17;;;;;;;8.95;8.05;;;;;;;;;;6294369;28;20033;-84
2021/09/13 03:35:18;;;;;;;8.25;7.10;;;13.80;99.90;;;;;;6277759;28;20032;-83
2021/09/13 03:38:18;;;;;;;7.50;6.70;;;13.70;99.90;;;;;;6277741;28;20032;-83
2021/09/13 03:41:19;;;;;;;7.93;6.57;;;13.70;99.90;;;;;;6294110;28;20490;-82
2021/09/13 03:44:20;;;;;;;8.10;7.32;;;;;;;;;;6277635;28;20378;-83
2021/09/13 03:47:20;;;;;;;7.57;6.78;;;13.70;99.90;;;;;;6276889;28;20114;-83
2021/09/13 03:50:21;;;;;;;8.07;7.28;;;13.60;99.90;;;;;;6277570;28;20039;-83
2021/09/13 03:53:22;;;;;;;10.98;8.98;;;;;;;;;;6277357;28;20450;-82
2021/09/13 03:56:23;;;;;;;8.20;6.88;;;;;;;;;;6294061;28;20016;-85
2021/09/13 03:59:24;;;;;;;7.72;6.07;;;;;;;;;;6277114;28;20063;-85
2021/09/13 04:02:25;;;;;;;7.43;6.65;;;13.70;99.90;;;;;;6293507;28;20033;-85
2021/09/13 04:05:26;;;;;;;6.95;6.25;;;;;;;;;;6277016;28;20029;-82
2021/09/13 04:11:38;;;;;;;7.65;6.85;;;13.50;99.90;;;;;;6277152;28;20055;-82
2021/09/13 04:14:39;;;;;;;8.93;7.13;;;;;;;;;;6278763;28;20028;-82
2021/09/13 04:17:41;;;;;;;8.10;7.38;;;13.50;99.90;;;;;;6276847;28;20040;-81
2021/09/13 04:20:41;;;;;;;7.50;6.80;;;13.50;99.90;;;;;;6259977;28;20065;-83
2021/09/13 04:23:42;;;;;;;8.65;7.55;;;13.50;99.90;;;;;;6276540;28;20482;-82
2021/09/13 04:26:43;;;;;;;7.20;6.50;;;13.60;99.90;;;;;;6276656;28;20040;-83
2021/09/13 04:29:44;;;;;;;7.32;6.63;;;;;;;;;;6276593;28;20480;-83
2021/09/13 04:32:44;;;;;;;9.38;7.40;;;13.50;99.90;;;;;;6292392;28;20021;-82
2021/09/13 04:35:45;;;;;;;7.50;6.65;;;13.70;99.90;;;;;;6275628;28;20387;-81
2021/09/13 04:38:45;;;;;;;6.95;6.25;;;13.90;99.90;;;;;;6276475;28;20035;-82
2021/09/13 04:41:46;;;;;;;7.78;6.78;;;13.50;99.90;;;;;;6275905;28;20025;-84
2021/09/13 04:44:47;;;;;;;7.85;7.15;;;13.50;99.90;;;;;;6259429;28;20381;-81
2021/09/13 04:47:47;;;;;;;7.95;7.03;;;13.50;99.90;;;;;;6291976;28;20064;-83
2021/09/13 04:50:48;;;;;;;8.40;7.13;;;13.60;99.90;;;;;;6275878;28;20163;-82
2021/09/13 04:53:49;;;;;;;8.15;6.93;;;;;;;;;;6275646;28;20033;-81
2021/09/13 04:56:50;;;;;;;9.95;7.25;;;;;;;;;;6292174;28;20031;-82
2021/09/13 04:59:51;;;;;;;9.35;8.27;;;;;;;;;;6289384;28;20106;-82
2021/09/13 05:02:51;;;;;;;10.75;8.02;;;13.50;99.90;;;;;;6275089;28;20024;-84
2021/09/13 05:05:52;;;;;;;9.45;8.48;;;13.50;99.90;;;;;;6275009;28;20064;-80
2021/09/13 05:08:52;;;;;;;8.75;7.75;;;13.60;99.90;;;;;;6274574;28;20093;-80
2021/09/13 05:11:53;;;;;;;8.55;7.65;;;13.60;99.90;;;;;;6274279;28;20425;-81
2021/09/13 05:14:54;;;;;;;8.75;7.88;;;13.80;99.90;;;;;;6258874;28;20028;-85
2021/09/13 05:17:54;;;;;;;9.27;7.57;;;13.70;99.90;;;;;;6259333;28;20107;-84
2021/09/13 05:20:55;;;;;;;9.23;7.47;;;13.70;99.90;;;;;;6274948;28;20082;-84
2021/09/13 05:23:55;;;;;;;10.48;8.13;;;13.70;99.90;;;;;;6275409;28;20020;-79
2021/09/13 05:26:56;;;;;;;8.82;7.55;;;13.70;99.90;;;;;;6291628;28;20036;-88
2021/09/13 05:29:57;;;;;;;8.93;8.02;;;13.60;99.90;;;;;;6258054;28;20520;-85
2021/09/13 05:32:57;;;;;;;10.60;8.07;;;13.80;99.90;;;;;;6258254;28;20037;-85
2021/09/13 05:35:58;;;;;;;8.88;7.32;;;13.90;99.90;;;;;;6273742;28;20029;-84
2021/09/13 05:38:59;;;;;;;8.73;7.35;;;13.90;99.90;;;;;;6274410;28;20167;-85
2021/09/13 05:41:59;;;;;;;8.88;7.97;;;14.40;99.90;;;;;;6290699;28;20029;-85
2021/09/13 05:45:00;;;;;;;8.00;7.20;;;14.20;99.90;;;;;;6258489;28;20486;-89
2021/09/13 05:48:01;;;;;;;13.93;7.03;;;14.90;99.90;;;;;;6257060;28;20063;-85
2021/09/13 05:51:01;;;;;;;7.10;6.38;;;15.50;99.90;;;;;;6291306;28;20078;-83
2021/09/13 05:54:02;;;;;;;7.78;6.28;;;16.30;99.90;;;;;;6257657;28;20068;-86
2021/09/13 05:57:03;;;;;;;7.05;6.43;;;16.80;99.90;;;;;;6257604;28;20032;-86
2021/09/13 06:00:04;;;;;;;6.78;5.88;;;17.40;99.90;;;;;;6257999;28;20054;-84
2021/09/13 06:03:06;;;;;;;6.80;6.07;;;17.90;99.90;;;;;;6273813;28;20033;-85
2021/09/13 06:06:07;;;;;;;6.72;5.88;;;18.40;99.90;;;;;;6257573;28;20031;-84
2021/09/13 06:09:08;;;;;;;7.13;6.03;;;;;;;;;;6275498;28;20049;-86
2021/09/13 06:12:11;;;;;;;7.97;6.20;;;18.80;99.90;;;;;;6274268;28;20475;-83
2021/09/13 06:15:11;;;;;;;7.05;6.15;;;19.10;99.90;;;;;;6258448;28;20116;-86
2021/09/13 06:18:14;;;;;;;13.50;7.38;;;19.10;99.90;;;;;;6257054;28;20491;-86
2021/09/13 06:21:15;;;;;;;6.78;6.00;;;19.40;99.90;;;;;;6257562;28;20028;-87
2021/09/13 06:24:16;;;;;;;8.38;6.18;;;;;;;;;;6258851;28;20082;-85
2021/09/13 06:27:17;;;;;;;9.82;6.13;;;20.00;99.90;;;;;;6275246;28;20035;-90
2021/09/13 06:30:17;;;;;;;6.40;5.78;;;20.30;99.90;;;;;;6258291;28;20037;-84
2021/09/13 06:33:18;;;;;;;6.53;5.82;;;20.50;99.90;;;;;;6258084;28;20467;-87
2021/09/13 06:36:18;;;;;;;6.03;5.43;;;20.90;99.90;;;;;;6257774;28;20119;-86
2021/09/13 06:39:19;;;;;;;8.30;6.38;;;21.20;99.90;;;;;;6258882;28;20115;-87
2021/09/13 06:42:20;;;;;;;6.78;6.07;;;21.40;99.90;;;;;;6259888;28;20150;-86
2021/09/13 06:45:22;;;;;;;6.63;6.03;;;21.60;99.90;;;;;;6260425;28;20036;-86
2021/09/13 06:48:23;;;;;;;6.32;5.72;;;22.00;99.90;;;;;;6259476;28;20391;-86
2021/09/13 06:51:24;;;;;;;7.50;5.57;;;21.80;99.90;;;;;;6274466;28;20059;-87
2021/09/13 06:54:26;;;;;;;6.30;5.47;;;22.50;99.90;;;;;;6275230;28;20430;-88
2021/09/13 06:57:27;;;;;;;7.00;6.00;;;22.60;99.90;;;;;;6262672;28;20032;-86
2021/09/13 07:00:28;;;;;;;6.00;5.40;;;23.40;99.90;;;;;;6262677;28;20481;-87
2021/09/13 07:03:29;;;;;;;6.32;5.30;;;;;;;;;;6262713;28;20039;-87
2021/09/13 07:06:29;;;;;;;5.82;5.30;;;23.70;99.90;;;;;;6279012;28;20025;-86
2021/09/13 07:09:30;;;;;;;6.57;5.78;;;;;;;;;;6262057;28;20564;-87
2021/09/13 07:12:31;;;;;;;6.20;5.15;;;;;;;;;;6278679;28;20025;-85
2021/09/13 07:15:32;;;;;;;6.32;5.18;;;;;;;;;;6278513;28;20032;-87
2021/09/13 07:18:33;;;;;;;6.07;5.47;;;;;;;;;;6278575;28;20081;-88
2021/09/13 07:21:34;;;;;;;5.72;5.22;;;;;;;;;;6278543;28;20029;-86
2021/09/13 07:24:35;;;;;;;5.65;5.15;;;;;;;;;;6278807;28;20044;-89
2021/09/13 07:27:36;;;;;;;6.07;5.47;;;24.80;97.60;;;;;;6278252;28;20123;-86
2021/09/13 07:30:36;;;;;;;7.30;6.07;;;24.60;96.30;;;;;;6261473;28;20462;-87
2021/09/13 07:33:37;;;;;;;5.63;5.07;;;24.70;96.00;;;;;;6261334;28;20081;-86
2021/09/13 07:36:38;;;;;;;5.93;5.33;;;24.80;97.00;;;;;;6278165;28;20146;-86
2021/09/13 07:39:38;;;;;;;6.53;5.03;;;25.10;95.90;;;;;;6261081;28;20033;-87
2021/09/13 07:42:40;;;;;;;5.63;5.03;;;25.80;94.40;;;;;;6261556;28;20028;-87
2021/09/13 07:45:41;;;;;;;5.43;4.93;;;;;;;;;;6261634;28;20092;-88
2021/09/13 07:48:42;;;;;;;5.30;4.80;;;;;;;;;;6277978;28;20049;-89
2021/09/13 07:51:43;;;;;;;4.80;4.30;;;;;;;;;;6278444;28;20651;-88
2021/09/13 07:54:43;;;;;;;5.67;5.00;;;26.70;91.40;;;;;;6276114;28;20479;-88
2021/09/13 07:57:44;;;;;;;5.50;5.00;;;27.50;91.70;;;;;;6260357;28;20671;-86
2021/09/13 08:00:45;;;;;;;6.33;4.80;;;;;;;;;;6277510;28;20021;-86
2021/09/13 08:03:46;;;;;;;5.63;5.00;;;27.20;88.80;;;;;;6275627;28;20463;-84
2021/09/13 08:06:46;;;;;;;5.77;4.70;;;27.40;89.70;;;;;;6260307;28;20032;-84
2021/09/13 08:09:47;;;;;;;8.17;5.50;;;;;;;;;;6260246;28;20075;-86
2021/09/13 08:12:48;;;;;;;5.20;4.70;;;28.20;87.00;;;;;;6276260;28;20024;-85
2021/09/13 08:15:49;;;;;;;5.97;4.57;;;;;;;;;;6260098;28;20166;-85
2021/09/13 08:18:51;;;;;;;4.97;4.57;;;;;;;;;;6276687;28;20060;-84
2021/09/13 08:21:52;;;;;;;6.82;4.50;;;;;;;;;;6277190;28;20267;-87
2021/09/13 08:24:54;;;;;;;5.13;4.63;;;29.60;78.70;;;;;;6276568;28;20048;-85
2021/09/13 08:28:01;;;;;;;4.97;4.47;;;30.00;81.30;;;;;;6293914;28;20032;-91
2021/09/13 08:31:02;;;;;;;6.20;4.28;;;;;;;;;;6261390;28;20028;-85
2021/09/13 08:34:02;;;;;;;5.25;4.68;;;30.40;74.90;;;;;;6293268;28;20553;-85
2021/09/13 08:37:03;;;;;;;6.13;4.60;;;30.20;74.00;;;;;;6259279;28;20036;-84
2021/09/13 08:40:04;;;;;;;6.37;5.37;;;30.40;75.00;;;;;;6259047;28;20064;-84
2021/09/13 08:43:05;;;;;;;5.38;4.88;;;30.60;76.60;;;;;;6275584;28;20025;-85
2021/09/13 08:46:08;;;;;;;5.30;4.77;;;30.40;75.40;;;;;;6291611;28;20044;-85
2021/09/13 08:49:11;;;;;;;6.78;4.57;;;;;;;;;;6257880;28;20059;-85
2021/09/13 08:52:13;;;;;;;5.45;4.60;;;30.50;73.10;;;;;;6275607;28;20352;-85
2021/09/13 08:55:13;;;;;;;5.22;4.72;;;30.80;87.40;;;;;;6275217;28;20462;-85
2021/09/13 08:58:21;;;;;;;5.03;4.53;;;30.80;74.00;;;;;;6258544;28;20035;-84
2021/09/13 09:01:22;;;;;;;6.60;4.90;;;30.70;72.20;;;;;;6260814;28;20202;-87
2021/09/13 09:04:23;;;;;;;4.90;4.43;;;30.80;72.10;;;;;;6259352;28;20467;-86
2021/09/13 09:07:25;;;;;;;5.13;4.63;;;31.00;71.80;;;;;;6274486;28;20033;-85
2021/09/13 09:10:27;;;;;;;5.22;4.72;;;31.00;72.60;;;;;;6274255;28;20028;-84
2021/09/13 09:13:38;;;;;;;6.13;4.80;;;31.20;72.30;;;;;;6290499;28;20029;-87
2021/09/13 09:16:38;;;;;;;5.53;4.50;;;31.00;71.30;;;;;;6290360;28;20112;-86
2021/09/13 09:19:39;;;;;;;5.43;4.30;;;31.00;71.70;;;;;;6277289;28;20029;-84
2021/09/13 09:22:40;;;;;;;4.63;4.22;;;30.80;86.10;;;;;;6259915;28;20037;-79
2021/09/13 09:25:41;;;;;;;5.43;4.78;;;30.90;87.30;;;;;;6292114;28;20567;-81
2021/09/13 09:28:41;;;;;;;5.10;4.37;;;31.00;94.70;;;;;;6275019;28;20382;-80
2021/09/13 09:31:44;;;;;;;5.70;4.70;;;31.00;72.30;;;;;;6290798;28;20403;-82
2021/09/13 09:34:45;;;;;;;7.18;4.85;;;31.10;93.50;;;;;;6290335;28;20079;-85
2021/09/13 09:37:46;;;;;;;8.33;5.10;;;;;;;;;;6274159;28;20020;-82
2021/09/13 09:40:46;;;;;;;5.20;4.70;;;30.90;93.60;;;;;;6289310;28;20100;-83
2021/09/13 09:43:57;;;;;;;5.23;4.73;;;31.20;81.50;;;;;;6257404;28;20028;-82
2021/09/13 09:47:04;;;;;;;5.93;4.30;;;31.30;71.00;;;;;;6274280;28;20071;-83
2021/09/13 09:50:05;;;;;;;6.18;4.57;;;31.00;72.60;;;;;;6274257;28;20025;-83
2021/09/13 09:53:19;;;;;;;5.38;4.88;;;31.00;73.60;;;;;;6274451;28;20482;-82
2021/09/13 09:56:19;;;;;;;5.38;4.88;;;31.00;83.30;;;;;;6273601;28;20036;-82
2021/09/13 09:59:20;;;;;;;8.00;4.97;;;30.90;72.50;;;;;;6272743;28;20056;-82
2021/09/13 10:02:20;;;;;;;5.67;4.63;;;30.90;73.30;;;;;;6290107;28;20096;-83
2021/09/13 10:05:22;;;;;;;5.50;4.97;;;31.00;71.80;;;;;;6273173;28;20029;-82
2021/09/13 10:08:23;;;;;;;6.43;4.68;;;31.00;73.00;;;;;;6257826;28;20032;-81
2021/09/13 10:11:24;;;;;;;5.35;4.72;;;31.00;72.20;;;;;;6274673;28;20128;-81
2021/09/13 10:14:27;;;;;;;5.57;5.00;;;30.90;71.60;;;;;;6274438;28;20090;-85
2021/09/13 10:17:27;;;;;;;5.95;4.57;;;31.00;72.20;;;;;;6274383;28;20039;-85
2021/09/13 10:20:28;;;;;;;4.83;4.43;;;31.10;72.90;;;;;;6258250;28;20945;-84
2021/09/13 10:23:28;;;;;;;6.83;4.80;;;31.00;71.50;;;;;;6273871;28;20432;-85
2021/09/13 10:26:29;;;;;;;5.27;4.77;;;31.10;73.00;;;;;;6257037;28;20480;-87
2021/09/13 10:29:30;;;;;;;5.53;4.23;;;31.00;72.60;;;;;;6257805;28;20052;-85
2021/09/13 10:32:30;;;;;;;4.83;4.43;;;31.00;72.00;;;;;;6294403;28;20035;-87
2021/09/13 10:35:54;;;;;;;6.53;4.30;;;30.80;72.80;;;;;;6277809;28;20266;-88
2021/09/13 10:38:55;;;;;;;5.75;4.53;;;31.00;71.80;;;;;;6279283;28;20024;-85
2021/09/13 10:41:56;;;;;;;7.63;4.43;;;31.00;72.40;;;;;;6262716;28;20021;-84
2021/09/13 10:45:08;;;;;;;5.50;4.57;;;31.00;73.40;;;;;;6262530;28;20039;-85
2021/09/13 10:48:17;;;;;;;5.53;4.68;;;31.00;73.40;;;;;;6278219;28;20143;-84
2021/09/13 10:51:17;;;;;;;5.70;4.32;;;30.80;73.10;;;;;;6295510;28;20025;-84
2021/09/13 10:54:18;;;;;;;6.27;4.20;;;30.80;73.60;;;;;;6278767;28;20194;-85
2021/09/13 10:57:18;;;;;;;6.63;4.33;;;30.80;73.90;;;;;;6262037;28;20037;-83
2021/09/13 11:00:37;;;;;;;4.90;4.40;;;31.00;93.20;;;;;;6277487;28;20024;-83
2021/09/13 11:03:39;;;;;;;6.20;4.82;;;30.80;73.80;;;;;;6296160;28;20024;-84
2021/09/13 11:06:43;;;;;;;5.65;4.75;;;30.60;94.70;;;;;;6278248;28;20027;-86
2021/09/13 11:09:44;;;;;;;5.13;4.50;;;;;;;;;;6260960;28;20036;-85
2021/09/13 11:12:50;;;;;;;6.03;4.38;;;30.40;95.30;;;;;;6294293;28;20029;-84
2021/09/13 11:15:50;;;;;;;4.90;4.43;;;30.20;95.00;;;;;;6277495;28;20024;-83
2021/09/13 11:18:52;;;;;;;6.20;4.25;;;;;;;;;;6277762;28;20024;-85
2021/09/13 11:21:57;;;;;;;4.97;4.47;;;30.30;80.00;;;;;;6294246;28;20139;-85
2021/09/13 11:24:57;;;;;;;7.28;4.50;;;30.40;84.10;;;;;;6277718;28;20029;-83
2021/09/13 11:28:02;;;;;;;4.97;4.10;;;30.30;83.50;;;;;;6277816;28;20131;-83
2021/09/13 11:31:02;;;;;;;4.47;4.07;;;30.30;73.80;;;;;;6277660;28;20024;-86
2021/09/13 11:34:06;;;;;;;6.50;4.57;;;30.20;73.60;;;;;;6260317;28;20031;-85
2021/09/13 11:37:25;;;;;;;5.75;4.22;;;30.10;74.30;;;;;;6277932;28;20025;-86
2021/09/13 11:40:26;;;;;;;5.30;4.68;;;30.20;74.50;;;;;;6261527;28;20035;-86
2021/09/13 11:43:27;;;;;;;4.50;4.10;;;30.10;75.20;;;;;;6277339;28;20115;-85
2021/09/13 11:46:27;;;;;;;7.67;4.97;;;30.10;75.80;;;;;;6276857;28;20051;-84
2021/09/13 11:49:29;;;;;;;6.47;4.33;;;30.00;89.00;;;;;;6277163;28;20044;-84
2021/09/13 11:52:34;;;;;;;4.90;4.40;;;30.10;75.20;;;;;;6260460;28;20271;-84
2021/09/13 11:55:34;;;;;;;4.68;4.28;;;30.10;74.70;;;;;;6293945;28;20085;-84
2021/09/13 11:58:44;;;;;;;4.73;4.33;;;30.00;74.80;;;;;;6277409;28;20364;-84
2021/09/13 12:02:05;;;;;;;6.03;4.60;;;30.90;74.20;;;;;;6260307;28;20497;-85
2021/09/13 12:05:14;;;;;;;5.20;4.70;;;30.00;73.40;;;;;;6293304;28;20077;-87
2021/09/13 12:08:21;;;;;;;6.53;4.57;;;29.90;74.70;;;;;;6277876;28;20040;-84
2021/09/13 12:11:21;;;;;;;4.70;4.30;;;29.80;75.00;;;;;;6276869;28;20570;-82
2021/09/13 12:14:22;;;;;;;5.93;4.87;;;29.70;76.60;;;;;;6277701;28;20028;-82
2021/09/13 12:17:23;;;;;;;5.53;4.70;;;29.60;75.80;;;;;;6260010;28;20490;-86
2021/09/13 12:20:36;;;;;;;5.77;4.57;;;29.60;77.20;;;;;;6276134;28;20024;-84
2021/09/13 12:23:38;;;;;;;4.88;4.22;;;29.40;74.10;;;;;;6292995;28;20115;-83
2021/09/13 12:26:38;;;;;;;5.22;4.30;;;29.60;77.30;;;;;;6260470;28;20037;-85
2021/09/13 12:29:53;;;;;;;4.87;4.37;;;29.40;75.00;;;;;;6276365;28;20155;-84
2021/09/13 12:32:58;;;;;;;5.88;4.88;;;29.30;75.90;;;;;;6260317;28;20537;-85
2021/09/13 12:36:02;;;;;;;5.43;4.93;;;29.10;76.60;;;;;;6259874;28;20047;-84
2021/09/13 12:39:07;;;;;;;4.80;4.40;;;29.10;74.20;;;;;;6259314;28;20177;-86
2021/09/13 12:42:25;;;;;;;5.80;4.90;;;29.10;77.50;;;;;;6259217;28;20034;-87
2021/09/13 12:45:28;;;;;;;5.30;4.80;;;29.00;75.90;;;;;;6258957;28;20024;-84
2021/09/13 12:48:29;;;;;;;5.68;4.57;;;29.00;74.70;;;;;;6259015;28;20057;-86
2021/09/13 12:51:29;;;;;;;5.53;4.37;;;28.90;74.10;;;;;;6259276;28;20124;-84
2021/09/13 12:54:31;;;;;;;6.30;4.43;;;28.90;77.40;;;;;;6275648;28;20447;-86
2021/09/13 12:57:36;;;;;;;4.90;4.38;;;28.70;76.90;;;;;;6275564;28;20025;-84
2021/09/13 13:00:37;;;;;;;4.93;4.43;;;;;;;;;;6276189;28;20028;-86
2021/09/13 13:03:37;;;;;;;10.25;4.40;;;28.80;74.30;;;;;;6276565;28;20017;-86
2021/09/13 13:06:47;;;;;;;6.27;4.37;;;28.90;76.60;;;;;;6259208;28;20036;-89
2021/09/13 13:09:48;;;;;;;4.93;4.43;;;;;;;;;;6260602;28;20119;-84
2021/09/13 13:12:49;;;;;;;6.40;4.40;;;29.00;75.80;;;;;;6273615;28;20023;-90
2021/09/13 13:15:50;;;;;;;5.03;3.90;;;29.00;88.60;;;;;;6259320;28;20102;-92
2021/09/13 13:18:51;;;;;;;5.00;4.07;;;29.10;89.70;;;;;;6258293;28;20021;-91
2021/09/13 13:21:51;;;;;;;4.47;4.07;;;29.00;75.90;;;;;;6247655;28;20501;-87
2021/09/13 13:24:52;;;;;;;4.27;3.87;;;29.10;87.00;;;;;;6259066;28;20067;-87
2021/09/13 13:27:53;;;;;;;4.77;4.10;;;;;;;;;;6259527;28;20465;-89
2021/09/13 13:30:54;;;;;;;4.47;3.65;;;;;;;;;;6276465;28;20025;-88
2021/09/13 13:33:55;;;;;;;4.88;4.43;;;;;;;;;;6276539;28;20039;-89
2021/09/13 13:36:55;;;;;;;5.32;4.13;;;28.70;72.60;;;;;;6275569;28;20025;-90
2021/09/13 13:39:56;;;;;;;4.47;4.00;;;28.70;77.90;;;;;;6259616;28;20032;-86
2021/09/13 13:42:57;;;;;;;4.73;4.07;;;28.60;89.50;;;;;;6259266;28;20028;-89
2021/09/13 13:45:57;;;;;;;4.93;4.38;;;28.60;75.20;;;;;;6259439;28;20024;-88
2021/09/13 13:48:58;;;;;;;4.50;3.80;;;28.60;75.20;;;;;;6258689;28;20056;-86
2021/09/13 13:52:02;;;;;;;4.40;4.00;;;28.70;73.60;;;;;;6257908;28;20032;-89
2021/09/13 13:55:16;;;;;;;4.25;3.85;;;28.70;89.10;;;;;;6257001;28;20455;-85
2021/09/13 13:58:17;;;;;;;4.28;3.88;;;28.70;87.60;;;;;;6291113;28;20020;-88
2021/09/13 14:01:17;;;;;;;4.13;3.73;;;29.30;75.20;;;;;;6258574;28;20047;-87
2021/09/13 14:04:18;;;;;;;4.07;3.67;;;;;;;;;;6260739;28;20237;-90
2021/09/13 14:07:21;;;;;;;4.78;4.07;;;;;;;;;;6280768;28;20503;-89
2021/09/13 14:14:22;;;;;;;4.32;3.90;;;;;;;;;;6299342;28;20128;-91
2021/09/13 14:22:01;;;;;;;5.25;4.30;;;28.60;69.60;;;;;;6299007;28;20037;-91
2021/09/13 14:25:02;;;;;;;3.70;3.30;;;;;;;;;;6290705;28;20028;-86
2021/09/13 14:28:02;;;;;;;7.72;4.20;;;28.50;84.10;;;;;;6279559;28;20379;-86
2021/09/13 14:31:03;;;;;;;4.38;3.70;;;28.60;72.40;;;;;;6262783;28;20067;-84
2021/09/13 14:34:04;;;;;;;7.40;3.80;;;;;;;;;;6262774;28;20032;-85
2021/09/13 14:37:05;;;;;;;4.18;3.78;;;28.50;70.80;;;;;;6280185;28;20039;-79
2021/09/13 14:40:08;;;;;;;4.60;3.70;;;28.40;71.80;;;;;;6296142;28;20462;-83
2021/09/13 14:43:08;;;;;;;4.93;3.78;;;28.30;71.50;;;;;;6279308;28;20643;-86
2021/09/13 14:46:09;;;;;;;4.60;3.40;;;28.20;72.00;;;;;;6262591;28;20033;-84
2021/09/13 14:49:10;;;;;;;7.47;3.90;;;28.20;71.20;;;;;;6262307;28;20510;-85
2021/09/13 14:52:11;;;;;;;5.73;4.17;;;;;;;;;;6263025;28;20038;-88
2021/09/13 14:55:11;;;;;;;4.35;3.63;;;27.90;70.60;;;;;;6296287;28;20029;-85
2021/09/13 14:58:14;;;;;;;9.17;3.80;;;27.80;71.60;;;;;;6262040;28;20605;-86
2021/09/13 15:01:14;;;;;;;4.00;3.58;;;28.10;72.80;;;;;;6279656;28;20024;-84
2021/09/13 15:04:15;;;;;;;4.97;4.00;;;27.80;73.60;;;;;;6262530;28;20059;-88
2021/09/13 15:07:15;;;;;;;4.17;3.77;;;27.70;75.30;;;;;;6257608;28;20470;-85
2021/09/13 15:10:18;;;;;;;4.53;4.13;;;;;;;;;;6262289;28;20029;-86
2021/09/13 15:13:19;;;;;;;4.35;3.72;;;;;;;;;;6278953;28;20051;-86
2021/09/13 15:16:20;;;;;;;5.45;4.13;;;;;;;;;;6278382;28;20368;-87
2021/09/13 15:19:21;;;;;;;4.25;3.85;;;27.80;73.70;;;;;;6278095;28;20024;-84
2021/09/13 15:22:22;;;;;;;6.00;3.97;;;27.70;74.50;;;;;;6261578;28;20060;-85
2021/09/13 15:25:22;;;;;;;5.23;3.90;;;27.60;87.00;;;;;;6260138;28;20064;-85
2021/09/13 15:28:23;;;;;;;4.30;3.70;;;;;;;;;;6260793;28;20080;-85
2021/09/13 15:31:24;;;;;;;5.40;3.72;;;;;;;;;;6277926;28;20642;-86
2021/09/13 15:34:25;;;;;;;4.20;3.80;;;27.50;73.40;;;;;;6295012;28;20098;-87
2021/09/13 15:37:25;;;;;;;4.10;3.70;;;27.50;75.20;;;;;;6261168;28;20046;-82
2021/09/13 15:40:26;;;;;;;4.10;3.43;;;27.50;75.20;;;;;;6261285;28;20447;-82
2021/09/13 15:43:27;;;;;;;5.10;3.80;;;27.50;75.00;;;;;;6277844;28;20036;-82
2021/09/13 15:46:28;;;;;;;5.27;3.73;;;27.30;91.00;;;;;;6277171;28;20036;-85
2021/09/13 15:49:28;;;;;;;8.67;3.90;;;27.20;76.00;;;;;;6260798;28;20041;-84
2021/09/13 15:52:29;;;;;;;5.70;3.93;;;27.10;76.50;;;;;;6260565;28;20111;-84
2021/09/13 15:55:30;;;;;;;4.23;3.80;;;26.90;76.60;;;;;;6277300;28;20029;-88
2021/09/13 15:58:31;;;;;;;4.47;4.00;;;;;;;;;;6261078;28;20462;-87
2021/09/13 16:01:32;;;;;;;5.40;3.90;;;26.80;77.70;;;;;;6295198;28;20056;-85
2021/09/13 16:04:34;;;;;;;5.18;3.80;;;26.80;76.50;;;;;;6260722;28;20502;-86
2021/09/13 16:07:35;;;;;;;4.43;3.95;;;;;;;;;;6261011;28;20033;-86
2021/09/13 16:10:35;;;;;;;4.15;3.58;;;26.80;76.10;;;;;;6277595;28;20051;-86
2021/09/13 16:13:36;;;;;;;5.20;4.40;;;26.80;78.10;;;;;;6260015;28;20025;-85
2021/09/13 16:16:37;;;;;;;10.60;4.33;;;26.70;79.40;;;;;;6260102;28;20471;-85
2021/09/13 16:19:37;;;;;;;13.30;4.63;;;26.70;79.60;;;;;;6259143;28;20363;-85